Terminal Aerodrome Forecast
Issued by NWS Cleveland, OH

Home | Current Version | Previous Version | Text Only | Print | Product List | Glossary Off
Versions: 1 2 3 4 5 6 7 8 9 10 11 12 13 14 15 16 17 18 19 20 21 22 23

000
FTUS41 KCLE 230100 AAA
TAFCAK
TAF AMD
KCAK 230143Z 2302/2324 21012KT P6SM OVC045
      TEMPO 2302/2306 6SM -SHRA
     FM231000 21010KT 5SM -SHRA OVC030
     FM231500 20012G20KT P6SM OVC035=

USA.gov is the U.S. government's official web portal to all federal, state and local government web resources and services.